Time;durP1;ratioP1;P1;durP2;ratioP2;P2;SDS_P1;SDS_P2;PMS_P1;PMS_P2;Temp;Humidity;BMP_temperature;BMP_pressure;BME280_temperature;BME280_humidity;BME280_pressure;Samples;Min_cycle;Max_cycle;Signal;HPM_P1;HPM_P2
2022/05/17 00:00:35;;;;;;;;;;;16.10;46.60;;;;;;5088382;28;20425;-57
2022/05/17 00:03:00;;;;;;;;;;;16.10;46.70;;;;;;5088889;28;19954;-57
2022/05/17 00:05:27;;;;;;;;;;;16.00;46.50;;;;;;5088681;28;20354;-56
2022/05/17 00:07:53;;;;;;;;;;;16.00;46.60;;;;;;5087086;28;19911;-57
2022/05/17 00:10:19;;;;;;;;;;;15.90;46.50;;;;;;5089718;28;19966;-55
2022/05/17 00:12:44;;;;;;;;;;;15.90;46.60;;;;;;5088957;28;19908;-56
2022/05/17 00:15:10;;;;;;;;;;;15.90;46.70;;;;;;5087530;28;19955;-56
2022/05/17 00:17:36;;;;;;;;;;;15.90;46.70;;;;;;5088071;28;19908;-57
2022/05/17 00:20:01;;;;;;;;;;;15.80;46.70;;;;;;5088293;28;19953;-57
2022/05/17 00:22:27;;;;;;;;;;;15.80;46.70;;;;;;5086667;28;19907;-57
2022/05/17 00:24:53;;;;;;;;;;;15.70;46.60;;;;;;5087802;28;19998;-57
2022/05/17 00:27:18;;;;;;;;;;;15.70;46.50;;;;;;5088747;28;19943;-55
2022/05/17 00:29:44;;;;;;;;;;;15.70;46.60;;;;;;5089853;28;19908;-57
2022/05/17 00:32:10;;;;;;;;;;;15.60;46.60;;;;;;5086383;28;20349;-56
2022/05/17 00:34:36;;;;;;;;;;;15.60;46.50;;;;;;5087599;28;19998;-56
2022/05/17 00:37:02;;;;;;;;;;;15.50;46.70;;;;;;5088585;28;20280;-55
2022/05/17 00:39:27;;;;;;;;;;;15.50;46.60;;;;;;5088608;28;19912;-57
2022/05/17 00:41:53;;;;;;;;;;;15.50;46.60;;;;;;5083157;28;19977;-56
2022/05/17 00:47:15;;;;;;;;;;;15.40;46.70;;;;;;5091085;28;19935;-57
2022/05/17 00:49:42;;;;;;;;;;;15.30;46.80;;;;;;5088619;28;19908;-57
2022/05/17 00:52:17;;;;;;;;;;;15.20;46.60;;;;;;5092161;28;19908;-57
2022/05/17 00:54:44;;;;;;;;;;;15.20;46.70;;;;;;5092279;28;19972;-57
2022/05/17 00:57:16;;;;;;;;;;;15.20;46.70;;;;;;5091934;28;19915;-57
2022/05/17 00:59:42;;;;;;;;;;;15.20;46.80;;;;;;5092052;28;19908;-57
2022/05/17 01:02:09;;;;;;;;;;;15.20;46.70;;;;;;5091312;28;19915;-57
2022/05/17 01:04:35;;;;;;;;;;;15.20;46.70;;;;;;5091371;28;20287;-57
2022/05/17 01:07:02;;;;;;;;;;;15.20;46.80;;;;;;5091179;28;19908;-56
2022/05/17 01:09:28;;;;;;;;;;;15.20;46.80;;;;;;5092227;28;19912;-57
2022/05/17 01:11:54;;;;;;;;;;;15.20;46.70;;;;;;5092763;28;19912;-57
2022/05/17 01:17:04;;;;;;;;;;;15.20;46.90;;;;;;5092266;28;20045;-56
2022/05/17 01:19:30;;;;;;;;;;;15.20;46.80;;;;;;5090244;28;20223;-57
2022/05/17 01:21:55;;;;;;;;;;;15.20;46.80;;;;;;5091907;28;19912;-56
2022/05/17 01:24:21;;;;;;;;;;;15.20;46.70;;;;;;5091681;28;20282;-57
2022/05/17 01:26:51;;;;;;;;;;;15.20;47.00;;;;;;5092684;28;19908;-57
2022/05/17 01:29:16;;;;;;;;;;;15.20;47.10;;;;;;5090672;28;20440;-57
2022/05/17 01:31:42;;;;;;;;;;;15.20;47.00;;;;;;5090700;28;19959;-56
2022/05/17 01:34:10;;;;;;;;;;;15.20;46.90;;;;;;5091411;28;19995;-57
2022/05/17 01:36:37;;;;;;;;;;;15.20;47.00;;;;;;5092261;28;19908;-57
2022/05/17 01:39:03;;;;;;;;;;;15.10;47.00;;;;;;5092857;28;20407;-57
2022/05/17 01:41:28;;;;;;;;;;;15.10;46.90;;;;;;5089905;28;20368;-56
2022/05/17 01:43:54;;;;;;;;;;;15.10;47.00;;;;;;5091304;28;19927;-56
2022/05/17 01:46:20;;;;;;;;;;;15.10;47.00;;;;;;5091665;28;19912;-57
2022/05/17 01:48:45;;;;;;;;;;;15.00;46.90;;;;;;5091497;28;19999;-57
2022/05/17 01:51:11;;;;;;;;;;;15.00;47.00;;;;;;5091543;28;19912;-57
2022/05/17 01:53:37;;;;;;;;;;;15.00;47.10;;;;;;5090392;28;20281;-57
2022/05/17 01:56:06;;;;;;;;;;;15.00;47.20;;;;;;5090120;28;19919;-57
2022/05/17 01:58:32;;;;;;;;;;;15.00;47.00;;;;;;5091146;28;20417;-57
2022/05/17 02:00:57;;;;;;;;;;;14.90;47.00;;;;;;5093736;28;19912;-55
2022/05/17 02:03:23;;;;;;;;;;;14.90;47.20;;;;;;5091519;28;19912;-57
2022/05/17 02:05:49;;;;;;;;;;;14.90;47.30;;;;;;5089230;28;19912;-56
2022/05/17 02:08:15;;;;;;;;;;;14.90;47.30;;;;;;5092371;28;19908;-57
2022/05/17 02:10:40;;;;;;;;;;;14.90;47.50;;;;;;5091513;28;19977;-57
2022/05/17 02:13:06;;;;;;;;;;;14.90;47.30;;;;;;5088213;28;19982;-57
2022/05/17 02:15:32;;;;;;;;;;;14.80;47.40;;;;;;5091153;28;19919;-57
2022/05/17 02:17:57;;;;;;;;;;;14.80;47.30;;;;;;5089157;28;19908;-56
2022/05/17 02:20:23;;;;;;;;;;;14.80;47.40;;;;;;5090731;28;19912;-56
2022/05/17 02:22:49;;;;;;;;;;;14.80;47.50;;;;;;5090600;28;19951;-56
2022/05/17 02:25:15;;;;;;;;;;;14.80;47.60;;;;;;5091043;28;19922;-56
2022/05/17 02:27:40;;;;;;;;;;;14.80;47.60;;;;;;5090740;28;19911;-56
2022/05/17 02:30:07;;;;;;;;;;;14.80;47.70;;;;;;5088778;28;20282;-57
2022/05/17 02:32:33;;;;;;;;;;;14.80;47.70;;;;;;5092734;28;20453;-57
2022/05/17 02:34:58;;;;;;;;;;;14.80;47.50;;;;;;5093251;28;19936;-57
2022/05/17 02:37:24;;;;;;;;;;;14.80;47.40;;;;;;5094066;28;19951;-56
2022/05/17 02:39:50;;;;;;;;;;;14.80;47.40;;;;;;5080078;28;20014;-56
2022/05/17 02:42:15;;;;;;;;;;;14.80;47.40;;;;;;5074001;28;20252;-57
2022/05/17 02:44:41;;;;;;;;;;;14.80;47.40;;;;;;5093968;28;19965;-57
2022/05/17 02:47:07;;;;;;;;;;;14.80;47.60;;;;;;5094473;28;20394;-57
2022/05/17 02:49:32;;;;;;;;;;;14.80;47.50;;;;;;5093748;28;19904;-57
2022/05/17 02:52:01;;;;;;;;;;;14.80;47.60;;;;;;5093771;28;20406;-57
2022/05/17 02:54:27;;;;;;;;;;;14.80;47.70;;;;;;5073973;28;20271;-57
2022/05/17 02:56:52;;;;;;;;;;;14.90;47.90;;;;;;5073982;28;20003;-56
2022/05/17 02:59:19;;;;;;;;;;;14.90;48.00;;;;;;5090711;28;19994;-57
2022/05/17 03:01:45;;;;;;;;;;;14.90;48.00;;;;;;5092538;28;19904;-56
2022/05/17 03:04:14;;;;;;;;;;;15.00;48.10;;;;;;5087336;28;20249;-57
2022/05/17 03:06:40;;;;;;;;;;;15.10;48.10;;;;;;5087898;28;19908;-57
2022/05/17 03:09:08;;;;;;;;;;;15.20;48.40;;;;;;5093919;28;20352;-57
2022/05/17 03:11:34;;;;;;;;;;;15.20;48.50;;;;;;5093051;28;20040;-57
2022/05/17 03:13:59;;;;;;;;;;;15.30;48.10;;;;;;5081363;28;19956;-57
2022/05/17 03:16:31;;;;;;;;;;;15.40;48.00;;;;;;5073342;28;20314;-56
2022/05/17 03:18:58;;;;;;;;;;;15.50;47.90;;;;;;5073698;28;19912;-57
2022/05/17 03:21:23;;;;;;;;;;;15.60;47.80;;;;;;5091173;28;20356;-57
2022/05/17 03:23:49;;;;;;;;;;;15.80;47.90;;;;;;5086143;28;19958;-56
2022/05/17 03:26:14;;;;;;;;;;;15.90;47.80;;;;;;5092806;28;19920;-56
2022/05/17 03:28:40;;;;;;;;;;;16.10;48.00;;;;;;5093683;28;19943;-56
2022/05/17 03:31:06;;;;;;;;;;;16.30;48.20;;;;;;5093350;28;19904;-56
2022/05/17 03:33:32;;;;;;;;;;;16.50;48.30;;;;;;5074785;28;19908;-56
2022/05/17 03:35:57;;;;;;;;;;;16.70;48.80;;;;;;5078052;28;19904;-55
2022/05/17 03:38:23;;;;;;;;;;;16.80;48.10;;;;;;5073414;28;19908;-56
2022/05/17 03:40:50;;;;;;;;;;;17.00;48.00;;;;;;5088461;28;19907;-56
2022/05/17 03:43:16;;;;;;;;;;;17.10;47.60;;;;;;5093539;28;19952;-56
2022/05/17 03:45:41;;;;;;;;;;;17.20;47.50;;;;;;5093104;28;20432;-55
2022/05/17 03:48:07;;;;;;;;;;;17.30;47.30;;;;;;5092196;28;19957;-56
2022/05/17 03:50:32;;;;;;;;;;;17.30;47.00;;;;;;5093218;28;19961;-56
2022/05/17 03:53:00;;;;;;;;;;;17.40;46.90;;;;;;5092771;28;19965;-56
2022/05/17 03:55:26;;;;;;;;;;;17.40;46.70;;;;;;5084568;28;20357;-56
2022/05/17 03:57:51;;;;;;;;;;;17.40;46.60;;;;;;5088318;28;19908;-56
2022/05/17 04:00:17;;;;;;;;;;;17.40;46.60;;;;;;5093271;28;19911;-56
2022/05/17 04:02:43;;;;;;;;;;;17.40;46.40;;;;;;5092102;28;19908;-55
2022/05/17 04:05:09;;;;;;;;;;;17.30;46.40;;;;;;5072631;28;20424;-56
2022/05/17 04:07:34;;;;;;;;;;;17.30;46.40;;;;;;5073102;28;19904;-55
2022/05/17 04:10:00;;;;;;;;;;;17.30;46.40;;;;;;5072672;28;19915;-56
2022/05/17 04:12:26;;;;;;;;;;;17.20;46.50;;;;;;5072795;28;19904;-55
2022/05/17 04:14:53;;;;;;;;;;;17.20;46.50;;;;;;5078628;28;19904;-55
2022/05/17 04:17:19;;;;;;;;;;;17.30;46.50;;;;;;5092876;28;19926;-55
2022/05/17 04:19:44;;;;;;;;;;;17.30;46.50;;;;;;5092235;28;19904;-56
2022/05/17 04:22:11;;;;;;;;;;;17.30;46.30;;;;;;5092995;28;19998;-56
2022/05/17 04:24:42;;;;;;;;;;;17.30;46.20;;;;;;5092470;28;19923;-56
2022/05/17 04:27:09;;;;;;;;;;;17.40;46.40;;;;;;5092078;28;20344;-55
2022/05/17 04:29:34;;;;;;;;;;;17.40;46.40;;;;;;5076336;28;19905;-55
2022/05/17 04:32:00;;;;;;;;;;;17.60;46.40;;;;;;5082577;28;20291;-56
2022/05/17 04:34:25;;;;;;;;;;;17.80;46.20;;;;;;5089042;28;20396;-55
2022/05/17 04:36:51;;;;;;;;;;;18.00;45.90;;;;;;5072471;28;19952;-56
2022/05/17 04:39:16;;;;;;;;;;;18.20;45.70;;;;;;5072349;28;19989;-56
2022/05/17 04:41:43;;;;;;;;;;;18.20;45.50;;;;;;5085268;28;20003;-55
2022/05/17 04:44:09;;;;;;;;;;;18.30;45.70;;;;;;5081403;28;19912;-56
2022/05/17 04:46:34;;;;;;;;;;;18.60;46.50;;;;;;5080111;28;19908;-56
2022/05/17 04:49:00;;;;;;;;;;;19.40;46.90;;;;;;5086871;28;19915;-56
2022/05/17 04:51:27;;;;;;;;;;;20.30;46.40;;;;;;5089884;28;19915;-58
2022/05/17 04:53:52;;;;;;;;;;;21.20;45.70;;;;;;5087177;28;20241;-57
2022/05/17 04:56:19;;;;;;;;;;;22.00;45.00;;;;;;5082350;28;19918;-57
2022/05/17 04:58:44;;;;;;;;;;;22.50;44.30;;;;;;5092537;28;20006;-56
2022/05/17 05:01:10;;;;;;;;;;;22.80;43.70;;;;;;5089788;28;20324;-56
2022/05/17 05:03:36;;;;;;;;;;;23.10;43.50;;;;;;5089361;28;19908;-57
2022/05/17 05:06:01;;;;;;;;;;;23.40;43.60;;;;;;5085314;28;19908;-56
2022/05/17 05:08:27;;;;;;;;;;;24.10;43.80;;;;;;5083240;28;19908;-57
2022/05/17 05:10:52;;;;;;;;;;;24.80;43.40;;;;;;5090038;28;19915;-57
2022/05/17 05:13:19;;;;;;;;;;;25.40;42.70;;;;;;5092374;28;19904;-57
2022/05/17 05:15:44;;;;;;;;;;;26.00;42.30;;;;;;5092059;28;19917;-56
2022/05/17 05:18:10;;;;;;;;;;;26.70;42.40;;;;;;5092478;28;20304;-57
2022/05/17 05:20:36;;;;;;;;;;;27.40;40.80;;;;;;5091463;28;20267;-56
2022/05/17 05:23:02;;;;;;;;;;;27.90;40.20;;;;;;5089909;28;19908;-56
2022/05/17 05:25:29;;;;;;;;;;;28.10;38.90;;;;;;5089404;28;19942;-57
2022/05/17 05:27:54;;;;;;;;;;;28.00;38.70;;;;;;5084834;28;19911;-56
2022/05/17 05:30:20;;;;;;;;;;;27.60;38.20;;;;;;5085877;28;19915;-57
2022/05/17 05:32:46;;;;;;;;;;;27.00;38.30;;;;;;5085382;28;19916;-56
2022/05/17 05:35:13;;;;;;;;;;;26.40;38.50;;;;;;5081421;28;20007;-57
2022/05/17 05:37:39;;;;;;;;;;;25.70;38.60;;;;;;5079443;28;19908;-57
2022/05/17 05:40:06;;;;;;;;;;;25.10;39.10;;;;;;5090317;28;19915;-57
2022/05/17 05:42:31;;;;;;;;;;;24.60;39.60;;;;;;5085217;28;19911;-57
2022/05/17 05:44:57;;;;;;;;;;;24.10;39.40;;;;;;5084807;28;19927;-57
2022/05/17 05:47:22;;;;;;;;;;;23.70;39.40;;;;;;5086209;28;22154;-56
2022/05/17 05:49:48;;;;;;;;;;;23.40;39.70;;;;;;5086361;28;20275;-56
2022/05/17 05:52:13;;;;;;;;;;;23.10;40.20;;;;;;5088419;28;19912;-56
2022/05/17 05:54:39;;;;;;;;;;;22.80;40.80;;;;;;5085861;28;19952;-57
2022/05/17 05:57:04;;;;;;;;;;;22.60;40.60;;;;;;5082449;28;19915;-57
2022/05/17 05:59:30;;;;;;;;;;;22.50;40.20;;;;;;5088204;28;19966;-57
2022/05/17 06:01:57;;;;;;;;;;;22.20;39.90;;;;;;5090325;28;19908;-57
2022/05/17 06:04:23;;;;;;;;;;;22.10;40.40;;;;;;5085225;28;19916;-56
2022/05/17 06:06:48;;;;;;;;;;;22.00;40.30;;;;;;5088868;28;19908;-56
2022/05/17 06:09:14;;;;;;;;;;;21.80;40.30;;;;;;5087901;28;19908;-56
2022/05/17 06:11:40;;;;;;;;;;;21.70;40.50;;;;;;5087655;28;20256;-56
2022/05/17 06:14:05;;;;;;;;;;;21.70;40.70;;;;;;5089643;28;19915;-55
2022/05/17 06:16:31;;;;;;;;;;;21.60;40.70;;;;;;5077673;28;19923;-56
2022/05/17 06:18:57;;;;;;;;;;;21.60;40.60;;;;;;5087168;28;20444;-56
2022/05/17 06:21:23;;;;;;;;;;;21.50;40.50;;;;;;5086994;28;19973;-56
2022/05/17 06:23:48;;;;;;;;;;;21.40;40.90;;;;;;5074441;28;19916;-56
2022/05/17 06:26:14;;;;;;;;;;;21.40;40.80;;;;;;5068636;28;21327;-57
2022/05/17 06:28:40;;;;;;;;;;;21.40;40.80;;;;;;5072808;28;20506;-57
2022/05/17 06:31:05;;;;;;;;;;;21.40;41.10;;;;;;5080098;28;19912;-56
2022/05/17 06:33:31;;;;;;;;;;;21.40;40.80;;;;;;5074333;28;20046;-58
2022/05/17 06:35:56;;;;;;;;;;;21.40;41.20;;;;;;5085450;28;20646;-58
2022/05/17 06:38:22;;;;;;;;;;;21.40;41.30;;;;;;5089694;28;20208;-57
2022/05/17 06:40:48;;;;;;;;;;;21.40;40.90;;;;;;5087958;28;20360;-57
2022/05/17 06:43:14;;;;;;;;;;;21.30;40.90;;;;;;5088825;28;19907;-57
2022/05/17 06:45:39;;;;;;;;;;;21.30;40.90;;;;;;5082854;28;19934;-58
2022/05/17 06:48:05;;;;;;;;;;;21.30;40.70;;;;;;5078733;28;20053;-57
2022/05/17 06:50:31;;;;;;;;;;;21.30;40.80;;;;;;5081573;28;20375;-58
2022/05/17 06:52:57;;;;;;;;;;;21.30;40.50;;;;;;5078594;28;19923;-58
2022/05/17 06:55:23;;;;;;;;;;;21.20;40.70;;;;;;5084805;28;19916;-59
2022/05/17 06:57:50;;;;;;;;;;;21.20;41.50;;;;;;5080161;28;19912;-57
2022/05/17 07:00:17;;;;;;;;;;;21.10;41.30;;;;;;5085180;28;19908;-58
2022/05/17 07:02:42;;;;;;;;;;;21.10;41.30;;;;;;5079815;28;20010;-57
2022/05/17 07:05:09;;;;;;;;;;;21.10;41.70;;;;;;5076472;28;19916;-56
2022/05/17 07:07:35;;;;;;;;;;;21.10;41.40;;;;;;5080115;28;19915;-58
2022/05/17 07:15:28;;;;;;;;;;;21.10;41.00;;;;;;5080032;28;19918;-58
2022/05/17 07:17:54;;;;;;;;;;;21.10;41.30;;;;;;5079744;28;19912;-58
2022/05/17 07:20:19;;;;;;;;;;;21.10;41.80;;;;;;5076321;28;21239;-57
2022/05/17 07:22:45;;;;;;;;;;;21.10;40.70;;;;;;5075891;28;19912;-58
2022/05/17 07:25:11;;;;;;;;;;;21.10;40.80;;;;;;5079567;28;20403;-57
2022/05/17 07:27:36;;;;;;;;;;;21.10;40.80;;;;;;5080930;28;19912;-58
2022/05/17 07:30:05;;;;;;;;;;;21.10;41.20;;;;;;5079062;28;19960;-58
2022/05/17 07:32:31;;;;;;;;;;;21.00;41.30;;;;;;5082392;28;19923;-58
2022/05/17 07:34:57;;;;;;;;;;;20.90;41.20;;;;;;5082483;28;19912;-58
2022/05/17 07:37:22;;;;;;;;;;;20.90;41.30;;;;;;5080620;28;19962;-58
2022/05/17 07:39:48;;;;;;;;;;;20.90;41.10;;;;;;5080675;28;19923;-59
2022/05/17 07:42:14;;;;;;;;;;;20.80;40.70;;;;;;5082540;28;19908;-58
2022/05/17 07:44:39;;;;;;;;;;;20.80;40.50;;;;;;5077707;28;19908;-57
2022/05/17 07:47:05;;;;;;;;;;;20.80;40.30;;;;;;5079602;28;19914;-59
2022/05/17 07:49:34;;;;;;;;;;;20.70;40.40;;;;;;5081284;28;20760;-59
2022/05/17 07:52:00;;;;;;;;;;;20.70;41.00;;;;;;5079905;28;19912;-58
2022/05/17 07:54:25;;;;;;;;;;;20.70;41.10;;;;;;5077604;28;19908;-57
2022/05/17 07:56:51;;;;;;;;;;;20.70;40.30;;;;;;5074369;28;19922;-58
2022/05/17 07:59:16;;;;;;;;;;;20.60;41.40;;;;;;5072956;28;20010;-57
2022/05/17 08:01:42;;;;;;;;;;;20.60;41.30;;;;;;5073525;28;19940;-57
2022/05/17 08:04:07;;;;;;;;;;;20.60;41.10;;;;;;5075884;28;22750;-57
2022/05/17 08:06:35;;;;;;;;;;;20.60;41.40;;;;;;5073380;28;19920;-57
2022/05/17 08:09:01;;;;;;;;;;;20.60;41.10;;;;;;5072357;28;20005;-57
2022/05/17 08:11:26;;;;;;;;;;;20.50;41.80;;;;;;5078825;28;19927;-58
2022/05/17 08:13:52;;;;;;;;;;;20.50;42.00;;;;;;5075163;28;19915;-57
2022/05/17 08:16:18;;;;;;;;;;;20.40;42.10;;;;;;5079741;28;19957;-57
2022/05/17 08:18:43;;;;;;;;;;;20.40;42.50;;;;;;5083339;28;19916;-58
2022/05/17 08:21:09;;;;;;;;;;;20.40;42.20;;;;;;5083033;28;20020;-57
2022/05/17 08:23:34;;;;;;;;;;;20.30;41.90;;;;;;5082136;28;20014;-58
2022/05/17 08:28:44;;;;;;;;;;;20.20;41.50;;;;;;5077934;28;19914;-58
2022/05/17 08:31:10;;;;;;;;;;;20.10;41.50;;;;;;5073548;28;19916;-58
2022/05/17 08:33:38;;;;;;;;;;;20.10;41.40;;;;;;5075954;28;19915;-57
2022/05/17 08:36:05;;;;;;;;;;;20.10;41.20;;;;;;5077367;28;19972;-58
2022/05/17 08:38:33;;;;;;;;;;;20.10;41.10;;;;;;5071771;28;20383;-59
2022/05/17 08:41:15;;;;;;;;;;;20.10;41.10;;;;;;5073666;28;19931;-59
2022/05/17 08:43:52;;;;;;;;;;;20.10;41.50;;;;;;5072237;28;19923;-58
2022/05/17 08:46:27;;;;;;;;;;;20.20;41.00;;;;;;5074130;28;21037;-57
2022/05/17 08:48:54;;;;;;;;;;;20.30;41.20;;;;;;5073815;28;19916;-57
2022/05/17 08:51:36;;;;;;;;;;;20.30;40.90;;;;;;5074391;28;19916;-57
2022/05/17 08:54:04;;;;;;;;;;;20.40;40.70;;;;;;5072339;28;20002;-58
2022/05/17 08:56:31;;;;;;;;;;;20.40;40.30;;;;;;5076166;28;20416;-56
2022/05/17 08:58:56;;;;;;;;;;;20.50;40.50;;;;;;5076054;28;19915;-58
2022/05/17 09:01:25;;;;;;;;;;;20.50;40.50;;;;;;5076889;28;20314;-58
2022/05/17 09:03:56;;;;;;;;;;;20.60;40.40;;;;;;5072320;28;19955;-58
2022/05/17 09:06:25;;;;;;;;;;;20.60;40.20;;;;;;5078537;28;19958;-58
2022/05/17 09:09:17;;;;;;;;;;;20.70;40.30;;;;;;5079331;28;19938;-58
2022/05/17 09:11:57;;;;;;;;;;;20.60;39.40;;;;;;5072500;28;19921;-58
2022/05/17 09:14:24;;;;;;;;;;;20.60;39.70;;;;;;5077077;28;19943;-58
2022/05/17 09:16:57;;;;;;;;;;;20.50;40.20;;;;;;5076591;28;19908;-57
2022/05/17 09:19:23;;;;;;;;;;;20.50;40.10;;;;;;5074283;28;20564;-58
2022/05/17 09:21:48;;;;;;;;;;;20.40;39.90;;;;;;5074115;28;19947;-57
2022/05/17 09:24:17;;;;;;;;;;;20.40;39.60;;;;;;5076125;28;19968;-58
2022/05/17 09:26:54;;;;;;;;;;;20.40;40.10;;;;;;5081756;28;19927;-58
2022/05/17 09:29:21;;;;;;;;;;;20.40;39.90;;;;;;5079139;28;19916;-58
2022/05/17 09:31:52;;;;;;;;;;;20.40;39.80;;;;;;5076686;28;20283;-58
2022/05/17 09:34:27;;;;;;;;;;;20.50;39.50;;;;;;5074615;28;19916;-58
2022/05/17 09:36:53;;;;;;;;;;;20.40;39.70;;;;;;5074474;28;19974;-58
2022/05/17 09:39:22;;;;;;;;;;;20.40;39.60;;;;;;5078728;28;19946;-58
2022/05/17 09:41:48;;;;;;;;;;;20.30;40.30;;;;;;5074930;28;19919;-57
2022/05/17 09:44:19;;;;;;;;;;;20.20;41.30;;;;;;5076712;28;19912;-57
2022/05/17 09:46:46;;;;;;;;;;;20.20;41.30;;;;;;5075776;28;19919;-58
2022/05/17 09:55:05;;;;;;;;;;;19.90;42.70;;;;;;5077943;28;19918;-59
2022/05/17 09:57:30;;;;;;;;;;;19.80;42.70;;;;;;5077870;28;19977;-57
2022/05/17 10:00:02;;;;;;;;;;;19.80;43.50;;;;;;5076418;28;19912;-58
2022/05/17 10:02:32;;;;;;;;;;;19.70;43.30;;;;;;5071158;28;20563;-58
2022/05/17 10:05:21;;;;;;;;;;;19.60;43.10;;;;;;5078317;28;20046;-58
2022/05/17 10:07:53;;;;;;;;;;;19.60;42.80;;;;;;5072086;28;20443;-58
2022/05/17 10:10:37;;;;;;;;;;;19.50;43.40;;;;;;5083839;28;19912;-58
2022/05/17 10:13:07;;;;;;;;;;;19.50;42.20;;;;;;5074397;28;19923;-58
2022/05/17 10:15:35;;;;;;;;;;;19.40;42.10;;;;;;5078961;28;19994;-58
2022/05/17 10:18:19;;;;;;;;;;;19.40;42.10;;;;;;5083241;28;19912;-58
2022/05/17 10:20:47;;;;;;;;;;;19.40;42.00;;;;;;5086259;28;20002;-57
2022/05/17 10:23:19;;;;;;;;;;;19.50;42.10;;;;;;5082254;28;19916;-58
2022/05/17 10:25:53;;;;;;;;;;;19.40;42.40;;;;;;5084916;28;19975;-58
2022/05/17 10:28:21;;;;;;;;;;;19.50;43.10;;;;;;5085547;28;20248;-58
2022/05/17 10:30:47;;;;;;;;;;;19.50;43.00;;;;;;5082263;28;19927;-61
2022/05/17 10:33:15;;;;;;;;;;;19.50;43.50;;;;;;5085556;28;19912;-59
2022/05/17 10:35:44;;;;;;;;;;;19.50;43.90;;;;;;5078914;28;19923;-60
2022/05/17 10:38:11;;;;;;;;;;;19.50;43.30;;;;;;5083940;28;19916;-60
2022/05/17 10:40:43;;;;;;;;;;;19.60;43.30;;;;;;5083580;28;20386;-60
2022/05/17 10:43:10;;;;;;;;;;;19.70;43.00;;;;;;5084058;28;20412;-60
2022/05/17 10:45:36;;;;;;;;;;;19.80;43.00;;;;;;5085831;28;20368;-60
2022/05/17 10:48:05;;;;;;;;;;;20.00;42.70;;;;;;5081645;28;19967;-60
2022/05/17 10:50:53;;;;;;;;;;;20.10;42.10;;;;;;5078719;28;19912;-60
2022/05/17 10:53:24;;;;;;;;;;;20.20;41.60;;;;;;5081932;28;19908;-60
2022/05/17 10:56:08;;;;;;;;;;;20.30;41.90;;;;;;5073705;28;19916;-60
2022/05/17 10:58:44;;;;;;;;;;;20.40;42.10;;;;;;5071761;28;19916;-60
2022/05/17 11:01:29;;;;;;;;;;;20.50;41.90;;;;;;5075764;28;19923;-60
2022/05/17 11:03:58;;;;;;;;;;;20.60;41.70;;;;;;5045428;28;19945;-60
2022/05/17 11:06:44;;;;;;;;;;;20.70;41.70;;;;;;5078427;28;19915;-60
2022/05/17 11:09:36;;;;;;;;;;;20.80;41.00;;;;;;5065157;28;20276;-60
2022/05/17 11:12:06;;;;;;;;;;;20.90;40.40;;;;;;5077051;28;19908;-61
2022/05/17 11:14:34;;;;;;;;;;;20.90;40.80;;;;;;5081891;28;20501;-62
2022/05/17 11:17:06;;;;;;;;;;;20.90;40.50;;;;;;5079410;28;19922;-61
2022/05/17 11:19:47;;;;;;;;;;;20.90;40.90;;;;;;5083054;28;19912;-60
2022/05/17 11:22:15;;;;;;;;;;;20.90;41.50;;;;;;5079846;28;19981;-61
2022/05/17 11:24:55;;;;;;;;;;;20.90;40.30;;;;;;5080318;28;19966;-59
2022/05/17 11:27:38;;;;;;;;;;;20.90;40.00;;;;;;5078203;28;19916;-60
2022/05/17 11:30:08;;;;;;;;;;;20.90;40.30;;;;;;5079398;28;21462;-60
2022/05/17 11:32:35;;;;;;;;;;;20.90;40.20;;;;;;5075489;28;19916;-60
2022/05/17 11:35:03;;;;;;;;;;;20.90;40.40;;;;;;5072303;28;20006;-59
2022/05/17 11:37:38;;;;;;;;;;;21.00;40.20;;;;;;5076627;28;20640;-57
2022/05/17 11:40:06;;;;;;;;;;;21.00;39.40;;;;;;5078594;28;19943;-58
2022/05/17 11:42:35;;;;;;;;;;;21.00;39.50;;;;;;5079029;28;19912;-57
2022/05/17 11:45:30;;;;;;;;;;;20.90;39.30;;;;;;5081498;28;20031;-58
2022/05/17 11:47:57;;;;;;;;;;;20.90;39.70;;;;;;5060687;28;19919;-57
2022/05/17 11:50:28;;;;;;;;;;;20.90;40.10;;;;;;5079770;28;19916;-58
2022/05/17 11:53:12;;;;;;;;;;;20.90;40.60;;;;;;5071105;28;19912;-57
2022/05/17 11:55:38;;;;;;;;;;;20.80;40.80;;;;;;5079379;28;19912;-58
2022/05/17 11:58:08;;;;;;;;;;;20.80;41.10;;;;;;5079643;28;20398;-59
2022/05/17 12:00:39;;;;;;;;;;;20.70;41.30;;;;;;5076603;28;20048;-56
2022/05/17 12:03:04;;;;;;;;;;;20.70;40.40;;;;;;5078595;28;20370;-56
2022/05/17 12:05:47;;;;;;;;;;;20.60;40.50;;;;;;5081150;28;19934;-56
2022/05/17 12:08:31;;;;;;;;;;;20.60;40.50;;;;;;5080318;28;19915;-57
2022/05/17 12:11:06;;;;;;;;;;;20.60;40.10;;;;;;5077951;28;19948;-57
2022/05/17 12:13:38;;;;;;;;;;;20.60;40.00;;;;;;5075683;28;19918;-57
2022/05/17 12:16:07;;;;;;;;;;;20.60;39.80;;;;;;5074308;28;19971;-56
2022/05/17 12:18:38;;;;;;;;;;;20.60;39.40;;;;;;5075490;28;19923;-56
2022/05/17 12:21:23;;;;;;;;;;;20.60;39.50;;;;;;5080685;28;19966;-56
2022/05/17 12:23:54;;;;;;;;;;;20.70;39.40;;;;;;5076379;28;20652;-57
2022/05/17 12:26:28;;;;;;;;;;;20.70;39.40;;;;;;5078035;28;20054;-56
2022/05/17 12:28:54;;;;;;;;;;;20.70;39.90;;;;;;5078556;28;19916;-56
2022/05/17 12:31:21;;;;;;;;;;;20.70;39.90;;;;;;5074568;28;19915;-57
2022/05/17 12:33:49;;;;;;;;;;;20.80;40.00;;;;;;5081524;28;19954;-56
2022/05/17 12:36:15;;;;;;;;;;;20.70;40.20;;;;;;5076971;28;19912;-57
2022/05/17 12:44:20;;;;;;;;;;;20.70;39.40;;;;;;5084418;28;19927;-56
2022/05/17 12:46:47;;;;;;;;;;;20.70;39.50;;;;;;5081803;28;19920;-57
2022/05/17 12:49:22;;;;;;;;;;;20.80;39.10;;;;;;5084541;28;19916;-57
2022/05/17 12:51:50;;;;;;;;;;;20.70;39.00;;;;;;5081072;28;19912;-57
2022/05/17 12:54:18;;;;;;;;;;;20.70;39.30;;;;;;5076027;28;19916;-57
2022/05/17 12:56:47;;;;;;;;;;;20.70;38.90;;;;;;5082373;28;19912;-57
2022/05/17 12:59:13;;;;;;;;;;;20.70;38.70;;;;;;5077547;28;19969;-57
2022/05/17 13:01:43;;;;;;;;;;;20.70;38.80;;;;;;5076515;28;19977;-57
2022/05/17 13:04:14;;;;;;;;;;;20.70;38.90;;;;;;5079850;28;19908;-58
2022/05/17 13:06:42;;;;;;;;;;;20.70;38.90;;;;;;5083554;28;19931;-58
2022/05/17 13:09:14;;;;;;;;;;;20.70;39.10;;;;;;5079989;28;19908;-58
2022/05/17 13:11:40;;;;;;;;;;;20.70;38.90;;;;;;5082536;28;19923;-57
2022/05/17 13:14:07;;;;;;;;;;;20.70;39.30;;;;;;5085117;28;19912;-57
2022/05/17 13:16:35;;;;;;;;;;;20.70;39.60;;;;;;5086592;28;20607;-57
2022/05/17 13:19:02;;;;;;;;;;;20.70;38.90;;;;;;5085082;28;19916;-57
2022/05/17 13:21:32;;;;;;;;;;;20.70;39.00;;;;;;5082176;28;20129;-57
2022/05/17 13:23:59;;;;;;;;;;;20.70;39.00;;;;;;5076770;28;20556;-58
2022/05/17 13:26:27;;;;;;;;;;;20.70;38.80;;;;;;5080863;28;20379;-57
2022/05/17 13:28:53;;;;;;;;;;;20.70;38.60;;;;;;5078217;28;19927;-57
2022/05/17 13:31:20;;;;;;;;;;;20.80;38.90;;;;;;5067789;28;19916;-57
2022/05/17 13:34:00;;;;;;;;;;;20.80;38.70;;;;;;5069432;28;19908;-58
2022/05/17 13:36:33;;;;;;;;;;;20.80;38.50;;;;;;5076317;28;20383;-57
2022/05/17 13:38:59;;;;;;;;;;;20.80;38.60;;;;;;5077365;28;19912;-57
2022/05/17 13:41:27;;;;;;;;;;;20.70;38.50;;;;;;5077088;28;19920;-57
2022/05/17 13:43:54;;;;;;;;;;;20.70;38.70;;;;;;5080767;28;19912;-57
2022/05/17 13:46:22;;;;;;;;;;;20.60;38.80;;;;;;5079960;28;19920;-58
2022/05/17 13:48:48;;;;;;;;;;;20.60;38.80;;;;;;5081130;28;20411;-59
2022/05/17 13:51:20;;;;;;;;;;;20.60;38.70;;;;;;5078874;28;20026;-58
2022/05/17 13:53:49;;;;;;;;;;;20.60;38.70;;;;;;5078905;28;19915;-57
2022/05/17 13:56:14;;;;;;;;;;;20.60;38.40;;;;;;5084547;28;19916;-58
2022/05/17 13:58:46;;;;;;;;;;;20.60;38.80;;;;;;5081554;28;19966;-56
2022/05/17 14:01:15;;;;;;;;;;;20.60;39.10;;;;;;5084843;28;19931;-56
2022/05/17 14:03:42;;;;;;;;;;;20.60;39.60;;;;;;5078862;28;19912;-57
2022/05/17 14:06:07;;;;;;;;;;;20.60;38.90;;;;;;5082517;28;19944;-58
2022/05/17 14:14:16;;;;;;;;;;;20.60;38.60;;;;;;5077578;28;19927;-57
2022/05/17 14:16:50;;;;;;;;;;;20.60;38.40;;;;;;5083222;28;20006;-59
2022/05/17 14:19:17;;;;;;;;;;;20.60;38.40;;;;;;5080931;28;19911;-57
2022/05/17 14:21:44;;;;;;;;;;;20.60;38.70;;;;;;5078626;28;19915;-57
2022/05/17 14:24:14;;;;;;;;;;;20.60;38.40;;;;;;5079986;28;20003;-57
2022/05/17 14:26:43;;;;;;;;;;;20.60;39.30;;;;;;5072546;28;20334;-57
2022/05/17 14:29:09;;;;;;;;;;;20.50;40.30;;;;;;5067874;28;19916;-57
2022/05/17 14:31:37;;;;;;;;;;;20.50;39.70;;;;;;5074380;28;19912;-58
2022/05/17 14:34:04;;;;;;;;;;;20.50;39.80;;;;;;5081247;28;20624;-58
2022/05/17 14:36:30;;;;;;;;;;;20.50;40.00;;;;;;5077792;28;19955;-58
2022/05/17 14:38:56;;;;;;;;;;;20.40;39.70;;;;;;5060439;28;19915;-57
2022/05/17 14:41:22;;;;;;;;;;;20.40;39.80;;;;;;5076908;28;19908;-57
2022/05/17 14:43:47;;;;;;;;;;;20.40;39.30;;;;;;5076208;28;20283;-58
2022/05/17 14:46:14;;;;;;;;;;;20.40;39.30;;;;;;5076113;28;19920;-55
2022/05/17 14:48:40;;;;;;;;;;;20.40;39.60;;;;;;5076080;28;20363;-57
2022/05/17 14:51:06;;;;;;;;;;;20.30;39.40;;;;;;5073034;28;19916;-56